全部
Billabong Stn Airport YBST 天氣
There is no TAF data available at YBST or any nearby airports.
There is no METAR data available at YBST. Showing METAR data for YWWL (23 mi SW).
WWY近期METAR歷史資料(YBST無資料)
| Date | Time (AEST) | Flight Rules | Wind Dir. | Speed | Type | Height AGL (ft) | Visibility | Temp (°C) | Temp (°F) | Dew Point (°C) | Dew Point (°F) | Rel. Humid. | Pressure | Density Altitude | Remarks |
|---|---|---|---|---|---|---|---|---|---|---|---|---|---|---|---|
| 04-五月 | 10:00 | n/a | 320° | 3 kt | Missing | 15° | 59° | 13° | 55° | 88% | 1017 mb | 747 ft | |||
| 04-五月 | 09:00 | n/a | Calm | Missing | 13° | 55° | 12° | 53° | 94% | 1017 mb | 507 ft | ||||
| 04-五月 | 08:00 | n/a | 310° | 3 kt | Missing | 13° | 55° | 12° | 53° | 94% | 1017 mb | 507 ft | |||
| 04-五月 | 07:00 | n/a | 260° | 6 kt | Missing | 13° | 55° | 12° | 53° | 94% | 1016 mb | 537 ft | |||
| 04-五月 | 06:00 | n/a | 230° | 4 kt | Missing | 13° | 55° | 12° | 53° | 94% | 1015 mb | 566 ft | |||
| 04-五月 | 05:00 | n/a | 240° | 6 kt | Missing | 13° | 55° | 12° | 53° | 94% | 1015 mb | 566 ft | |||
| 04-五月 | 04:00 | n/a | 250° | 7 kt | Missing | 13° | 55° | 12° | 53° | 94% | 1015 mb | 566 ft | |||
| 04-五月 | 03:00 | n/a | 360° | 7 kt | Missing | 17° | 62° | 16° | 60° | 94% | 1015 mb | 1,046 ft | |||
| 04-五月 | 02:00 | n/a | 360° | 6 kt | Missing | 17° | 62° | 16° | 60° | 94% | 1016 mb | 1,017 ft | |||
| 04-五月 | 01:00 | n/a | 360° | 7 kt | Missing | 17° | 62° | 16° | 60° | 94% | 1016 mb | 1,017 ft | |||
| 04-五月 | 00:00 | n/a | 10° | 9 kt | Missing | 17° | 62° | 17° | 62° | 100% | 1016 mb | 1,017 ft | |||
| 03-五月 | 23:00 | n/a | 10° | 7 kt | Missing | 17° | 62° | 17° | 62° | 100% | 1017 mb | 987 ft | |||
| 03-五月 | 22:00 | n/a | 360° | 7 kt | Missing | 17° | 62° | 16° | 60° | 94% | 1018 mb | 957 ft | |||
| 03-五月 | 21:00 | n/a | 360° | 6 kt | Missing | 17° | 62° | 16° | 60° | 94% | 1017 mb | 987 ft | |||
| 03-五月 | 20:00 | n/a | 360° | 6 kt | Missing | 18° | 64° | 16° | 60° | 88% | 1017 mb | 1,107 ft | |||
| 03-五月 | 19:00 | n/a | 360° | 6 kt | Missing | 19° | 66° | 15° | 59° | 78% | 1016 mb | 1,257 ft | |||
| 03-五月 | 18:00 | n/a | 360° | 3 kt | Missing | 19° | 66° | 16° | 60° | 83% | 1016 mb | 1,257 ft | |||
| 03-五月 | 17:00 | n/a | 20° | 6 kt | Missing | 20° | 68° | 16° | 60° | 78% | 1016 mb | 1,377 ft | |||
| 03-五月 | 16:00 | n/a | 350° | 4 kt | Missing | 21° | 69° | 16° | 60° | 73% | 1015 mb | 1,526 ft | |||
| 03-五月 | 15:00 | n/a | 320° | 8 kt | Missing | 22° | 71° | 15° | 59° | 65% | 1016 mb | 1,617 ft | |||
| 03-五月 | 14:00 | n/a | 360° | 13 kt | Missing | 25° | 77° | 13° | 55° | 47% | 1016 mb | 1,977 ft | |||
| 03-五月 | 13:00 | n/a | 360° | 14 kt | Missing | 25° | 77° | 13° | 55° | 47% | 1016 mb | 1,977 ft | |||
| 03-五月 | 12:00 | n/a | 10° | 14 kt | Missing | 24° | 75° | 13° | 55° | 50% | 1017 mb | 1,827 ft | |||
| 03-五月 | 11:00 | n/a | 10° | 16 kt | Missing | 23° | 73° | 12° | 53° | 50% | 1018 mb | 1,677 ft |
登入
| 您的瀏覽器不支援. 升級您的瀏覽器 |
